Time;durP1;ratioP1;P1;durP2;ratioP2;P2;SDS_P1;SDS_P2;PMS_P1;PMS_P2;Temp;Humidity;BMP_temperature;BMP_pressure;BME280_temperature;BME280_humidity;BME280_pressure;Samples;Min_cycle;Max_cycle;Signal;HPM_P1;HPM_P2
2024/02/06 00:00:45;;;;;;;218.88;149.68;;;8.30;99.90;;;;;;5064473;28;20024;-77
2024/02/06 00:03:11;;;;;;;216.43;149.40;;;8.30;99.90;;;;;;5063059;28;20033;-77
2024/02/06 00:05:37;;;;;;;215.55;149.43;;;8.30;99.90;;;;;;5065142;28;20395;-77
2024/02/06 00:08:03;;;;;;;219.60;149.88;;;8.30;99.90;;;;;;5061934;28;20100;-77
2024/02/06 00:10:29;;;;;;;226.13;149.35;;;8.30;99.90;;;;;;5063542;28;20582;-77
2024/02/06 00:12:55;;;;;;;218.57;148.32;;;8.30;99.90;;;;;;5059475;28;20112;-77
2024/02/06 00:15:20;;;;;;;222.68;149.57;;;8.30;99.90;;;;;;5064374;28;20025;-77
2024/02/06 00:17:46;;;;;;;228.52;149.18;;;8.30;99.90;;;;;;5063501;28;20027;-76
2024/02/06 00:20:12;;;;;;;227.25;154.32;;;8.30;99.90;;;;;;5063769;28;20017;-77
2024/02/06 00:22:38;;;;;;;214.45;148.73;;;8.30;99.90;;;;;;5062664;28;20036;-77
2024/02/06 00:25:04;;;;;;;217.90;149.55;;;8.30;99.90;;;;;;5065061;28;20252;-77
2024/02/06 00:27:30;;;;;;;225.65;148.55;;;8.30;99.90;;;;;;5061987;28;20043;-77
2024/02/06 00:29:56;;;;;;;221.18;149.38;;;8.40;99.90;;;;;;5061956;28;20483;-77
2024/02/06 00:32:22;;;;;;;222.88;149.73;;;8.40;99.90;;;;;;5065226;28;20036;-77
2024/02/06 00:34:48;;;;;;;222.57;145.98;;;8.40;99.90;;;;;;5062279;28;20040;-77
2024/02/06 00:37:15;;;;;;;226.93;153.35;;;8.40;99.90;;;;;;5064569;28;20040;-77
2024/02/06 00:39:41;;;;;;;218.55;145.23;;;8.40;99.90;;;;;;5063226;28;20033;-77
2024/02/06 00:42:07;;;;;;;217.90;148.80;;;8.40;99.90;;;;;;5065404;28;20112;-77
2024/02/06 00:44:33;;;;;;;212.85;145.95;;;8.40;99.90;;;;;;5059199;28;20051;-77
2024/02/06 00:46:58;;;;;;;217.35;141.80;;;8.40;99.90;;;;;;5060258;28;20017;-77
2024/02/06 00:49:24;;;;;;;213.13;146.10;;;8.40;99.90;;;;;;5064247;28;20099;-77
2024/02/06 00:51:50;;;;;;;217.70;143.80;;;8.40;99.90;;;;;;5062281;28;20025;-77
2024/02/06 00:54:15;;;;;;;218.27;146.90;;;8.40;99.90;;;;;;5064493;28;20084;-77
2024/02/06 00:56:41;;;;;;;214.98;146.73;;;8.40;99.90;;;;;;5061551;28;20386;-77
2024/02/06 00:59:07;;;;;;;215.18;147.32;;;8.40;99.90;;;;;;5063885;28;20024;-77
2024/02/06 01:01:33;;;;;;;209.93;139.43;;;8.40;99.90;;;;;;5060034;28;20427;-77
2024/02/06 01:03:58;;;;;;;206.20;142.00;;;8.40;99.90;;;;;;5062663;28;20044;-76
2024/02/06 01:06:24;;;;;;;201.18;138.05;;;8.40;99.90;;;;;;5071734;28;20494;-76
2024/02/06 01:08:50;;;;;;;209.70;139.25;;;8.40;99.90;;;;;;5074359;28;20031;-76
2024/02/06 01:11:16;;;;;;;212.30;142.50;;;8.40;99.90;;;;;;5062277;28;20021;-76
2024/02/06 01:13:42;;;;;;;208.35;138.52;;;8.40;99.90;;;;;;5059116;28;20126;-76
2024/02/06 01:16:07;;;;;;;210.55;141.32;;;8.50;99.90;;;;;;5061064;28;20020;-76
2024/02/06 01:18:34;;;;;;;216.57;144.43;;;8.40;99.90;;;;;;5063329;28;20024;-77
2024/02/06 01:21:00;;;;;;;206.80;138.55;;;8.50;99.90;;;;;;5062141;28;20495;-77
2024/02/06 01:23:25;;;;;;;213.63;138.38;;;8.50;99.90;;;;;;5063716;28;20032;-77
2024/02/06 01:25:51;;;;;;;202.07;138.43;;;8.50;99.90;;;;;;5061448;28;20024;-77
2024/02/06 01:28:17;;;;;;;210.00;141.50;;;8.50;99.90;;;;;;5064112;28;20020;-77
2024/02/06 01:30:42;;;;;;;209.90;140.65;;;8.50;99.90;;;;;;5060746;28;20537;-76
2024/02/06 01:33:08;;;;;;;198.70;132.73;;;8.50;99.90;;;;;;5064403;28;20103;-77
2024/02/06 01:35:34;;;;;;;207.00;138.15;;;8.50;99.90;;;;;;5060977;28;20025;-77
2024/02/06 01:37:59;;;;;;;209.70;136.25;;;8.50;99.90;;;;;;5065540;28;20071;-77
2024/02/06 01:40:25;;;;;;;209.10;141.65;;;8.50;99.90;;;;;;5062229;28;20450;-77
2024/02/06 01:42:51;;;;;;;212.20;142.10;;;8.50;99.90;;;;;;5059098;28;20035;-76
2024/02/06 01:45:16;;;;;;;209.35;139.13;;;8.50;99.90;;;;;;5061701;28;20564;-76
2024/02/06 01:47:44;;;;;;;213.48;142.05;;;8.50;99.90;;;;;;5062675;28;20036;-77
2024/02/06 01:50:11;;;;;;;202.85;139.48;;;8.50;99.90;;;;;;5060919;28;20048;-77
2024/02/06 01:52:38;;;;;;;205.13;137.80;;;8.50;99.90;;;;;;5059235;28;20052;-77
2024/02/06 01:55:05;;;;;;;210.82;136.00;;;8.50;99.90;;;;;;5061176;28;20494;-76
2024/02/06 01:57:35;;;;;;;203.98;134.38;;;8.60;99.90;;;;;;5067312;28;20107;-77
2024/02/06 02:00:02;;;;;;;196.70;132.10;;;8.60;99.90;;;;;;5060710;28;20017;-77
2024/02/06 02:02:28;;;;;;;209.95;135.75;;;8.60;99.90;;;;;;5062996;28;20417;-76
2024/02/06 02:04:53;;;;;;;204.85;136.02;;;8.60;99.90;;;;;;5061271;28;20032;-77
2024/02/06 02:07:19;;;;;;;208.77;139.70;;;8.60;99.90;;;;;;5059980;28;20360;-77
2024/02/06 02:09:45;;;;;;;196.38;129.80;;;8.60;99.90;;;;;;5062001;28;20027;-77
2024/02/06 02:12:10;;;;;;;197.90;133.70;;;8.60;99.90;;;;;;5061813;28;20036;-77
2024/02/06 02:14:37;;;;;;;206.63;135.55;;;8.60;99.90;;;;;;5060283;28;20057;-77
2024/02/06 02:17:03;;;;;;;213.57;137.48;;;8.60;99.90;;;;;;5060080;28;20029;-77
2024/02/06 02:19:29;;;;;;;202.30;133.35;;;8.60;99.90;;;;;;5062168;28;20020;-77
2024/02/06 02:21:55;;;;;;;192.60;131.60;;;8.60;99.90;;;;;;5064006;28;20162;-76
2024/02/06 02:24:21;;;;;;;203.68;136.93;;;8.60;99.90;;;;;;5060022;28;20025;-77
2024/02/06 02:26:47;;;;;;;204.73;139.07;;;8.60;99.90;;;;;;5063401;28;20028;-77
2024/02/06 02:29:14;;;;;;;205.68;135.43;;;8.60;99.90;;;;;;5060033;28;20031;-77
2024/02/06 02:31:43;;;;;;;193.07;132.95;;;8.60;99.90;;;;;;5062574;28;20059;-77
2024/02/06 02:34:09;;;;;;;207.93;136.73;;;8.60;99.90;;;;;;5061078;28;20372;-77
2024/02/06 02:36:37;;;;;;;200.93;131.02;;;8.60;99.90;;;;;;5065046;28;20078;-76
2024/02/06 02:39:03;;;;;;;201.10;132.20;;;8.60;99.90;;;;;;5059439;28;20027;-77
2024/02/06 02:41:29;;;;;;;197.13;134.82;;;8.60;99.90;;;;;;5062282;28;20481;-77
2024/02/06 02:43:56;;;;;;;192.18;132.73;;;8.70;99.90;;;;;;5059307;28;20056;-77
2024/02/06 02:46:21;;;;;;;199.55;133.25;;;8.70;99.90;;;;;;5058290;28;20077;-77
2024/02/06 02:48:47;;;;;;;201.27;134.07;;;8.70;99.90;;;;;;5063222;28;20059;-77
2024/02/06 02:51:13;;;;;;;191.70;127.97;;;8.70;99.90;;;;;;5059443;28;20033;-76
2024/02/06 02:53:39;;;;;;;196.70;128.25;;;8.70;99.90;;;;;;5062893;28;20406;-76
2024/02/06 02:56:05;;;;;;;192.95;127.43;;;8.70;99.90;;;;;;5059907;28;20032;-77
2024/02/06 02:58:31;;;;;;;196.73;128.43;;;8.70;99.90;;;;;;5060810;28;20055;-77
2024/02/06 03:00:56;;;;;;;194.35;127.32;;;8.70;99.90;;;;;;5064283;28;20060;-77
2024/02/06 03:03:22;;;;;;;194.20;129.90;;;8.70;99.90;;;;;;5061369;28;20035;-77
2024/02/06 03:05:48;;;;;;;194.50;127.07;;;8.70;99.90;;;;;;5061288;28;20086;-77
2024/02/06 03:08:14;;;;;;;185.38;122.78;;;8.70;99.90;;;;;;5059545;28;20028;-77
2024/02/06 03:10:39;;;;;;;186.65;122.03;;;8.70;99.90;;;;;;5061410;28;20107;-76
2024/02/06 03:13:05;;;;;;;185.93;121.72;;;8.80;99.90;;;;;;5056263;28;20028;-77
2024/02/06 03:15:31;;;;;;;188.00;122.80;;;8.80;99.90;;;;;;5062442;28;20021;-76
2024/02/06 03:17:57;;;;;;;179.75;117.43;;;8.80;99.90;;;;;;5059521;28;20483;-77
2024/02/06 03:20:23;;;;;;;178.75;118.63;;;8.80;99.90;;;;;;5062777;28;20028;-77
2024/02/06 03:22:49;;;;;;;182.82;119.63;;;8.80;99.90;;;;;;5074805;28;20025;-77
2024/02/06 03:25:15;;;;;;;180.90;117.88;;;8.80;99.90;;;;;;5062616;28;20027;-77
2024/02/06 03:27:45;;;;;;;177.93;118.25;;;8.80;99.90;;;;;;5058455;28;20115;-77
2024/02/06 03:30:11;;;;;;;173.73;116.05;;;8.80;99.90;;;;;;5061324;28;20032;-77
2024/02/06 03:32:37;;;;;;;177.90;117.78;;;8.80;99.90;;;;;;5060878;28;20048;-77
2024/02/06 03:35:04;;;;;;;201.63;131.90;;;8.80;99.90;;;;;;5059430;28;20027;-77
2024/02/06 03:37:30;;;;;;;218.75;144.05;;;8.80;99.90;;;;;;5060356;28;20020;-77
2024/02/06 03:39:55;;;;;;;228.43;148.18;;;8.70;99.90;;;;;;5058691;28;20017;-77
2024/02/06 03:42:21;;;;;;;218.93;142.05;;;8.70;99.90;;;;;;5060830;28;20112;-77
2024/02/06 03:44:47;;;;;;;221.25;146.48;;;8.60;99.90;;;;;;5058935;28;20383;-77
2024/02/06 03:47:12;;;;;;;223.23;147.13;;;8.60;99.90;;;;;;5058901;28;20049;-77
2024/02/06 03:49:38;;;;;;;215.85;144.32;;;8.60;99.90;;;;;;5061422;28;21363;-77
2024/02/06 03:52:05;;;;;;;218.07;144.23;;;8.60;99.90;;;;;;5055344;28;20029;-77
2024/02/06 03:54:30;;;;;;;231.95;152.68;;;8.60;99.90;;;;;;5060906;28;20024;-77
2024/02/06 03:56:56;;;;;;;230.30;146.75;;;8.50;99.90;;;;;;5062616;28;20029;-77
2024/02/06 03:59:22;;;;;;;225.55;147.13;;;8.50;99.90;;;;;;5064916;28;20028;-77
2024/02/06 04:01:48;;;;;;;221.30;142.30;;;8.50;99.90;;;;;;5064036;28;20044;-77
2024/02/06 04:04:13;;;;;;;230.48;144.35;;;8.50;99.90;;;;;;5064342;28;20597;-77
2024/02/06 04:06:39;;;;;;;228.13;147.05;;;8.50;99.90;;;;;;5066141;28;20029;-77
2024/02/06 04:09:06;;;;;;;226.60;145.40;;;8.50;99.90;;;;;;5062293;28;20102;-78
2024/02/06 04:11:32;;;;;;;222.82;146.55;;;8.50;99.90;;;;;;5063624;28;20028;-77
2024/02/06 04:13:57;;;;;;;212.95;139.95;;;8.50;99.90;;;;;;5058964;28;20036;-77
2024/02/06 04:16:23;;;;;;;223.10;146.02;;;8.50;99.90;;;;;;5065814;28;20024;-77
2024/02/06 04:18:49;;;;;;;222.50;145.48;;;8.50;99.90;;;;;;5066644;28;20154;-78
2024/02/06 04:21:15;;;;;;;212.18;136.15;;;8.40;99.90;;;;;;5063165;28;20071;-77
2024/02/06 04:23:40;;;;;;;207.80;141.45;;;8.40;99.90;;;;;;5066577;28;20021;-77
2024/02/06 04:26:06;;;;;;;215.20;137.07;;;8.40;99.90;;;;;;5063842;28;20062;-77
2024/02/06 04:28:32;;;;;;;210.73;134.70;;;8.40;99.90;;;;;;5064785;28;20120;-77
2024/02/06 04:30:58;;;;;;;210.18;137.05;;;8.40;99.90;;;;;;5064030;28;20036;-77
2024/02/06 04:33:23;;;;;;;211.45;137.48;;;8.40;99.90;;;;;;5063086;28;20028;-77
2024/02/06 04:35:49;;;;;;;201.90;131.35;;;8.40;99.90;;;;;;5064177;28;20027;-77
2024/02/06 04:38:15;;;;;;;199.10;130.50;;;8.50;99.90;;;;;;5064717;28;20025;-77
2024/02/06 04:40:41;;;;;;;192.77;128.40;;;8.40;99.90;;;;;;5061816;28;20433;-77
2024/02/06 04:43:06;;;;;;;190.60;126.45;;;8.50;99.90;;;;;;5064395;28;20063;-77
2024/02/06 04:45:33;;;;;;;194.75;122.90;;;8.50;99.90;;;;;;5064703;28;20040;-77
2024/02/06 04:47:59;;;;;;;185.50;123.25;;;8.50;99.90;;;;;;5061884;28;20024;-77
2024/02/06 04:50:24;;;;;;;186.55;122.65;;;8.50;99.90;;;;;;5060444;28;20032;-77
2024/02/06 04:52:50;;;;;;;186.70;119.97;;;8.50;99.90;;;;;;5061850;28;20433;-77
2024/02/06 04:55:16;;;;;;;185.93;121.18;;;8.50;99.90;;;;;;5061689;28;20447;-77
2024/02/06 04:57:42;;;;;;;195.05;123.88;;;8.50;99.90;;;;;;5064716;28;20480;-77
2024/02/06 05:00:12;;;;;;;180.60;120.28;;;8.50;99.90;;;;;;5062539;28;20027;-77
2024/02/06 05:02:41;;;;;;;194.02;123.20;;;8.50;99.90;;;;;;5065096;28;20017;-77
2024/02/06 05:05:07;;;;;;;189.93;119.95;;;8.40;99.90;;;;;;5065506;28;20021;-77
2024/02/06 05:07:33;;;;;;;182.60;119.05;;;8.40;99.90;;;;;;5067742;28;20083;-77
2024/02/06 05:09:59;;;;;;;185.43;117.82;;;8.40;99.90;;;;;;5061992;28;20471;-77
2024/02/06 05:12:24;;;;;;;184.10;119.40;;;8.40;99.90;;;;;;5067309;28;20471;-77
2024/02/06 05:14:51;;;;;;;182.45;118.07;;;8.40;99.90;;;;;;5061309;28;20466;-77
2024/02/06 05:17:17;;;;;;;178.57;117.65;;;8.40;99.90;;;;;;5061389;28;20021;-77
2024/02/06 05:19:43;;;;;;;181.25;115.70;;;8.40;99.90;;;;;;5064554;28;20031;-77
2024/02/06 05:22:09;;;;;;;186.02;115.53;;;8.50;99.90;;;;;;5061814;28;20104;-77
2024/02/06 05:24:35;;;;;;;191.32;118.57;;;8.50;99.90;;;;;;5063756;28;20059;-77
2024/02/06 05:27:03;;;;;;;177.13;114.22;;;8.40;99.90;;;;;;5063114;28;20075;-77
2024/02/06 05:29:30;;;;;;;177.68;113.82;;;8.40;99.90;;;;;;5063128;28;20040;-77
2024/02/06 05:31:56;;;;;;;184.32;115.10;;;8.50;99.90;;;;;;5060739;28;20037;-77
2024/02/06 05:34:22;;;;;;;173.98;114.82;;;8.50;99.90;;;;;;5063900;28;20036;-77
2024/02/06 05:36:48;;;;;;;187.70;118.93;;;8.40;99.90;;;;;;5056382;28;20032;-77
2024/02/06 05:39:14;;;;;;;184.68;116.82;;;8.50;99.90;;;;;;5064237;28;20025;-77
2024/02/06 05:41:39;;;;;;;180.63;116.88;;;8.40;99.90;;;;;;5060339;28;20040;-76
2024/02/06 05:44:05;;;;;;;186.95;121.75;;;8.40;99.90;;;;;;5056921;28;20025;-77
2024/02/06 05:46:31;;;;;;;200.55;127.60;;;8.40;99.90;;;;;;5062663;28;20025;-77
2024/02/06 05:48:57;;;;;;;217.02;141.65;;;8.40;99.90;;;;;;5059971;28;20029;-77
2024/02/06 05:51:23;;;;;;;219.80;140.75;;;8.40;99.90;;;;;;5063082;28;20035;-77
2024/02/06 05:53:49;;;;;;;218.68;148.07;;;8.40;99.90;;;;;;5064696;28;20104;-77
2024/02/06 05:56:15;;;;;;;231.48;153.90;;;8.40;99.90;;;;;;5058182;28;20029;-77
2024/02/06 05:58:42;;;;;;;225.38;146.88;;;8.30;99.90;;;;;;5060915;28;20028;-77
2024/02/06 06:01:08;;;;;;;220.23;144.07;;;8.30;99.90;;;;;;5062624;28;20028;-77
2024/02/06 06:03:35;;;;;;;231.23;149.70;;;8.30;99.90;;;;;;5057828;28;20033;-78
2024/02/06 06:06:00;;;;;;;222.98;142.93;;;8.30;99.90;;;;;;5059747;28;20115;-77
2024/02/06 06:08:26;;;;;;;216.65;143.57;;;8.30;99.90;;;;;;5060859;28;20107;-77
2024/02/06 06:10:52;;;;;;;218.23;137.55;;;8.30;99.90;;;;;;5073016;28;20394;-77
2024/02/06 06:13:18;;;;;;;209.77;135.82;;;8.30;99.90;;;;;;5062902;28;20029;-77
2024/02/06 06:15:45;;;;;;;225.52;139.45;;;8.30;99.90;;;;;;5053040;28;20025;-77
2024/02/06 06:18:11;;;;;;;215.20;139.70;;;8.30;99.90;;;;;;5061164;28;20024;-77
2024/02/06 06:20:37;;;;;;;214.77;138.70;;;8.30;99.90;;;;;;5063738;28;20056;-77
2024/02/06 06:23:03;;;;;;;215.95;138.35;;;8.30;99.90;;;;;;5070544;28;20364;-77
2024/02/06 06:25:30;;;;;;;217.98;138.02;;;8.30;99.90;;;;;;5056831;28;20033;-77
2024/02/06 06:27:56;;;;;;;213.00;134.90;;;8.30;99.90;;;;;;5061056;28;20025;-77
2024/02/06 06:30:23;;;;;;;214.38;133.75;;;8.30;99.90;;;;;;5055353;28;20028;-77
2024/02/06 06:32:49;;;;;;;219.75;138.32;;;8.30;99.90;;;;;;5068774;28;20541;-77
2024/02/06 06:35:15;;;;;;;210.02;135.25;;;8.30;99.90;;;;;;5053438;28;20509;-77
2024/02/06 06:37:41;;;;;;;218.35;135.50;;;8.30;99.90;;;;;;5052701;28;20104;-77
2024/02/06 06:40:08;;;;;;;213.43;137.63;;;8.20;99.90;;;;;;5052948;28;20021;-77
2024/02/06 06:42:34;;;;;;;209.68;133.52;;;8.20;99.90;;;;;;5052865;28;20033;-77
2024/02/06 06:45:00;;;;;;;206.07;134.27;;;8.20;99.90;;;;;;5051817;28;20049;-77
2024/02/06 06:47:25;;;;;;;203.73;131.75;;;8.20;99.90;;;;;;5052767;28;20514;-77
2024/02/06 06:49:51;;;;;;;203.60;133.23;;;8.20;99.90;;;;;;5052933;28;20029;-77
2024/02/06 06:52:17;;;;;;;200.38;127.57;;;8.30;99.90;;;;;;5061099;28;20480;-77
2024/02/06 06:54:42;;;;;;;193.02;124.22;;;8.40;99.90;;;;;;5063366;28;20026;-77
2024/02/06 06:57:08;;;;;;;190.20;121.57;;;8.60;99.90;;;;;;5060863;28;20021;-77
2024/02/06 06:59:34;;;;;;;198.77;122.63;;;8.60;99.90;;;;;;5061939;28;20470;-77
2024/02/06 07:02:00;;;;;;;195.82;124.22;;;8.70;99.90;;;;;;5058667;28;20029;-76
2024/02/06 07:04:26;;;;;;;193.18;124.43;;;8.70;99.90;;;;;;5060306;28;20074;-77
2024/02/06 07:06:53;;;;;;;191.05;119.20;;;8.80;99.90;;;;;;5055472;28;20121;-77
2024/02/06 07:09:21;;;;;;;189.20;120.10;;;8.90;99.90;;;;;;5062374;28;20025;-77
2024/02/06 07:11:48;;;;;;;194.57;123.18;;;8.90;99.90;;;;;;5062411;28;20025;-77
2024/02/06 07:14:14;;;;;;;211.35;136.27;;;8.90;99.90;;;;;;5057442;28;20028;-77
2024/02/06 07:16:40;;;;;;;205.57;136.40;;;8.90;99.90;;;;;;5061464;28;20070;-77
2024/02/06 07:19:06;;;;;;;213.35;136.05;;;8.80;99.90;;;;;;5059402;28;20128;-76
2024/02/06 07:21:32;;;;;;;210.02;136.30;;;8.80;99.90;;;;;;5059893;28;20427;-77
2024/02/06 07:23:58;;;;;;;211.20;140.85;;;8.80;99.90;;;;;;5060687;28;20107;-77
2024/02/06 07:26:24;;;;;;;220.93;142.65;;;8.80;99.90;;;;;;5061843;28;20043;-77
2024/02/06 07:28:49;;;;;;;224.10;138.65;;;8.80;99.90;;;;;;5060155;28;20029;-77
2024/02/06 07:31:15;;;;;;;212.00;136.52;;;8.80;99.90;;;;;;5064489;28;20032;-77
2024/02/06 07:33:41;;;;;;;212.38;138.20;;;8.70;99.90;;;;;;5061935;28;20025;-76
2024/02/06 07:36:07;;;;;;;218.38;140.10;;;8.70;99.90;;;;;;5066765;28;20367;-77
2024/02/06 07:38:33;;;;;;;215.48;138.23;;;8.70;99.90;;;;;;5062841;28;20035;-77
2024/02/06 07:40:59;;;;;;;217.82;137.55;;;8.70;99.90;;;;;;5063347;28;20032;-77
2024/02/06 07:43:32;;;;;;;209.23;133.20;;;8.70;99.90;;;;;;5063151;28;20035;-76
2024/02/06 07:45:57;;;;;;;208.50;132.27;;;8.70;99.90;;;;;;5064320;28;20098;-76
2024/02/06 07:48:23;;;;;;;212.32;134.23;;;8.80;99.90;;;;;;5057981;28;20032;-77
2024/02/06 07:50:49;;;;;;;210.23;130.48;;;8.80;99.90;;;;;;5064957;28;20187;-77
2024/02/06 07:53:16;;;;;;;210.63;134.35;;;8.80;99.90;;;;;;5070518;28;20028;-77
2024/02/06 07:55:41;;;;;;;210.43;135.27;;;8.80;99.90;;;;;;5063122;28;20107;-76
2024/02/06 07:58:07;;;;;;;213.60;138.10;;;8.80;99.90;;;;;;5066167;28;20044;-77
2024/02/06 08:00:34;;;;;;;219.23;140.77;;;8.80;99.90;;;;;;5062449;28;20033;-77
2024/02/06 08:03:01;;;;;;;224.10;138.15;;;8.80;99.90;;;;;;5065883;28;20028;-76
2024/02/06 08:05:26;;;;;;;209.80;140.40;;;8.90;99.90;;;;;;5061893;28;20476;-76
2024/02/06 08:07:52;;;;;;;207.38;133.93;;;8.90;99.90;;;;;;5071506;28;20020;-77
2024/02/06 08:10:18;;;;;;;213.93;136.07;;;8.90;99.90;;;;;;5063530;28;20071;-77
2024/02/06 08:12:44;;;;;;;214.95;138.05;;;8.90;99.90;;;;;;5064331;28;20255;-76
2024/02/06 08:15:10;;;;;;;226.60;145.30;;;8.90;99.90;;;;;;5060347;28;20025;-76
2024/02/06 08:17:36;;;;;;;220.32;139.02;;;8.90;99.90;;;;;;5063660;28;20032;-77
2024/02/06 08:20:06;;;;;;;211.18;138.65;;;8.90;99.90;;;;;;5064640;28;20029;-77
2024/02/06 08:22:32;;;;;;;218.95;141.90;;;8.90;99.90;;;;;;5065771;28;20028;-77
2024/02/06 08:24:58;;;;;;;215.63;140.20;;;8.90;99.90;;;;;;5062120;28;20033;-77
2024/02/06 08:27:23;;;;;;;213.52;140.00;;;8.90;99.90;;;;;;5060657;28;20028;-77
2024/02/06 08:29:49;;;;;;;218.40;141.23;;;8.90;99.90;;;;;;5062447;28;20021;-77
2024/02/06 08:32:15;;;;;;;217.80;139.10;;;9.00;99.90;;;;;;5063767;28;20116;-77
2024/02/06 08:34:41;;;;;;;222.00;147.05;;;9.00;99.90;;;;;;5063307;28;20035;-76
2024/02/06 08:37:06;;;;;;;232.05;149.25;;;9.00;99.90;;;;;;5065421;28;20028;-76
2024/02/06 08:39:32;;;;;;;225.50;139.82;;;9.00;99.90;;;;;;5055910;28;20025;-76
2024/02/06 08:41:58;;;;;;;229.75;149.52;;;9.00;99.90;;;;;;5069488;28;20099;-75
2024/02/06 08:44:25;;;;;;;220.65;143.13;;;9.00;99.90;;;;;;5061755;28;20029;-76
2024/02/06 08:46:52;;;;;;;231.13;147.68;;;9.00;99.90;;;;;;5058629;28;20032;-76
2024/02/06 08:49:17;;;;;;;229.05;145.95;;;9.00;99.90;;;;;;5058196;28;20024;-76
2024/02/06 08:51:43;;;;;;;219.57;145.07;;;9.00;99.90;;;;;;5061582;28;20374;-76
2024/02/06 08:54:09;;;;;;;221.38;142.95;;;9.00;99.90;;;;;;5054787;28;20024;-76
2024/02/06 08:56:35;;;;;;;221.77;144.77;;;9.00;99.90;;;;;;5053031;28;20470;-76
2024/02/06 08:59:02;;;;;;;216.68;140.20;;;9.10;99.90;;;;;;5058367;28;20021;-76
2024/02/06 09:01:28;;;;;;;211.10;138.38;;;9.10;99.90;;;;;;5066037;28;20029;-76
2024/02/06 09:03:53;;;;;;;216.85;139.48;;;9.10;99.90;;;;;;5062223;28;20028;-76
2024/02/06 09:06:19;;;;;;;219.85;139.38;;;9.10;99.90;;;;;;5063620;28;20551;-76
2024/02/06 09:08:45;;;;;;;225.27;142.77;;;9.10;99.90;;;;;;5056519;28;20034;-76
2024/02/06 09:11:11;;;;;;;214.30;139.40;;;9.20;99.90;;;;;;5059851;28;20050;-76
2024/02/06 09:13:37;;;;;;;218.68;139.82;;;9.20;99.90;;;;;;5069417;28;20028;-76
2024/02/06 09:16:03;;;;;;;209.32;133.90;;;9.30;99.90;;;;;;5052926;28;20020;-76
2024/02/06 09:18:29;;;;;;;216.23;137.80;;;9.30;99.90;;;;;;5061858;28;20565;-76
2024/02/06 09:20:55;;;;;;;207.85;134.45;;;9.30;99.90;;;;;;5061904;28;20028;-76
2024/02/06 09:23:21;;;;;;;212.82;136.63;;;9.30;99.90;;;;;;5065548;28;20051;-76
2024/02/06 09:25:46;;;;;;;204.13;131.27;;;9.30;99.90;;;;;;5061612;28;20032;-76
2024/02/06 09:28:12;;;;;;;205.55;133.05;;;9.40;99.90;;;;;;5057547;28;20033;-76
2024/02/06 09:30:39;;;;;;;212.73;132.68;;;9.40;99.90;;;;;;5065452;28;20061;-76
2024/02/06 09:33:06;;;;;;;209.18;133.05;;;9.40;99.90;;;;;;5066669;28;20025;-76
2024/02/06 09:35:32;;;;;;;214.18;135.80;;;9.40;99.90;;;;;;5072073;28;20056;-76
2024/02/06 09:37:57;;;;;;;203.27;131.88;;;9.50;99.90;;;;;;5080766;28;20280;-76
2024/02/06 09:40:24;;;;;;;207.90;133.85;;;9.40;99.90;;;;;;5060102;28;20024;-76
2024/02/06 09:42:50;;;;;;;202.48;132.32;;;9.50;99.90;;;;;;5061295;28;20070;-76
2024/02/06 09:45:17;;;;;;;207.27;133.50;;;9.40;99.90;;;;;;5064040;28;20059;-76
2024/02/06 09:47:42;;;;;;;204.00;132.13;;;9.50;99.90;;;;;;5061631;28;20021;-76
2024/02/06 09:50:09;;;;;;;199.77;129.85;;;9.50;99.90;;;;;;5061534;28;20025;-76
2024/02/06 09:52:36;;;;;;;195.27;124.75;;;9.50;99.90;;;;;;5057411;28;20029;-76
2024/02/06 09:55:10;;;;;;;196.70;128.02;;;9.60;99.90;;;;;;5068300;28;20025;-76
2024/02/06 09:57:38;;;;;;;196.68;124.32;;;9.60;99.90;;;;;;5073105;28;20029;-76
2024/02/06 10:00:10;;;;;;;208.02;129.02;;;9.60;99.90;;;;;;5071697;28;20028;-76
2024/02/06 10:02:41;;;;;;;209.38;134.40;;;9.60;99.90;;;;;;5056334;28;20115;-76
2024/02/06 10:05:12;;;;;;;201.20;134.83;;;9.60;99.90;;;;;;5057150;28;20021;-76
2024/02/06 10:07:39;;;;;;;210.93;133.13;;;9.60;99.90;;;;;;5060823;28;20021;-76
2024/02/06 10:10:06;;;;;;;204.35;134.35;;;9.60;99.90;;;;;;5068644;28;20021;-76
2024/02/06 10:12:31;;;;;;;203.35;131.90;;;9.60;99.90;;;;;;5061694;28;20031;-76
2024/02/06 10:14:57;;;;;;;205.13;131.25;;;9.60;99.90;;;;;;5069995;28;20025;-76
2024/02/06 10:17:23;;;;;;;211.65;138.32;;;9.60;99.90;;;;;;5060641;28;20119;-76
2024/02/06 10:19:48;;;;;;;217.25;141.10;;;9.60;99.90;;;;;;5064525;28;20025;-76
2024/02/06 10:22:14;;;;;;;222.48;142.75;;;9.60;99.90;;;;;;5072125;28;20160;-76
2024/02/06 10:24:40;;;;;;;228.80;144.82;;;9.60;99.90;;;;;;5053005;28;20506;-76
2024/02/06 10:27:06;;;;;;;225.23;147.32;;;9.60;99.90;;;;;;5052494;28;20479;-76
2024/02/06 10:29:32;;;;;;;229.73;146.95;;;9.60;99.90;;;;;;5052650;28;20082;-76
2024/02/06 10:32:01;;;;;;;217.73;142.85;;;9.50;99.90;;;;;;5061297;28;20063;-76
2024/02/06 10:34:27;;;;;;;235.00;145.23;;;9.50;99.90;;;;;;5068595;28;20025;-76
2024/02/06 10:36:59;;;;;;;213.05;137.98;;;9.50;99.90;;;;;;5060457;28;20479;-76
2024/02/06 10:39:29;;;;;;;217.90;140.02;;;9.50;99.90;;;;;;5067276;28;20025;-76
2024/02/06 10:42:02;;;;;;;215.52;141.02;;;9.50;99.90;;;;;;5072192;28;20023;-76
2024/02/06 10:44:28;;;;;;;215.88;134.15;;;9.50;99.90;;;;;;5059056;28;20516;-76
2024/02/06 10:46:59;;;;;;;210.30;139.90;;;9.50;99.90;;;;;;5056468;28;20078;-76
2024/02/06 10:49:25;;;;;;;212.27;137.98;;;9.50;99.90;;;;;;5071021;28;20098;-76
2024/02/06 10:51:51;;;;;;;215.20;136.52;;;9.50;99.90;;;;;;5061273;28;20510;-76
2024/02/06 10:54:20;;;;;;;217.25;136.13;;;9.50;99.90;;;;;;5052195;28;20479;-76
2024/02/06 10:56:59;;;;;;;211.38;137.48;;;9.50;99.90;;;;;;5066787;28;20028;-76
2024/02/06 10:59:32;;;;;;;209.82;138.43;;;9.50;99.90;;;;;;5070100;28;20150;-76
2024/02/06 11:02:00;;;;;;;213.95;135.90;;;9.60;99.90;;;;;;5060024;28;20079;-76
2024/02/06 11:04:28;;;;;;;214.43;138.52;;;9.60;99.90;;;;;;5063648;28;20120;-76
2024/02/06 11:07:05;;;;;;;217.13;141.30;;;9.60;99.90;;;;;;5061853;28;20028;-76
2024/02/06 11:09:35;;;;;;;234.05;149.00;;;9.70;99.90;;;;;;5065471;28;20189;-76
2024/02/06 11:12:01;;;;;;;228.35;148.18;;;9.60;99.90;;;;;;5063476;28;20021;-76
2024/02/06 11:14:29;;;;;;;232.98;150.30;;;9.70;99.90;;;;;;5067879;28;20031;-76
2024/02/06 11:16:57;;;;;;;245.75;156.50;;;9.70;99.90;;;;;;5052317;28;20048;-76
2024/02/06 11:19:46;;;;;;;242.25;151.20;;;9.60;99.90;;;;;;5055143;28;20383;-76
2024/02/06 11:22:26;;;;;;;240.27;152.25;;;9.50;99.90;;;;;;5064339;28;20433;-76
2024/02/06 11:24:55;;;;;;;233.60;146.02;;;9.50;99.90;;;;;;5071984;28;20382;-76
2024/02/06 11:27:22;;;;;;;230.32;146.75;;;9.60;99.90;;;;;;5060591;28;20295;-76
2024/02/06 11:29:49;;;;;;;228.43;145.32;;;9.50;99.90;;;;;;5063710;28;20452;-76
2024/02/06 11:32:15;;;;;;;225.05;145.50;;;9.60;99.90;;;;;;5059693;28;20101;-76
2024/02/06 11:34:52;;;;;;;229.45;143.48;;;9.60;99.90;;;;;;5068435;28;20214;-76
2024/02/06 11:37:29;;;;;;;227.75;148.60;;;9.60;99.90;;;;;;5066434;28;20044;-76
2024/02/06 11:40:04;;;;;;;225.30;146.13;;;9.60;99.90;;;;;;5060264;28;20029;-75
2024/02/06 11:42:34;;;;;;;231.50;151.85;;;9.60;99.90;;;;;;5060339;28;20028;-76
2024/02/06 11:45:10;;;;;;;217.95;143.35;;;9.70;99.90;;;;;;5071623;28;20044;-76
2024/02/06 11:47:55;;;;;;;226.30;146.48;;;9.70;99.90;;;;;;5061701;28;20056;-76
2024/02/06 11:50:33;;;;;;;227.55;147.80;;;9.70;99.90;;;;;;5069605;28;20504;-76
2024/02/06 11:53:09;;;;;;;222.25;141.27;;;9.70;99.90;;;;;;5063731;28;20036;-76
2024/02/06 11:55:35;;;;;;;239.63;151.80;;;9.80;99.90;;;;;;5067774;28;20159;-76
2024/02/06 11:58:01;;;;;;;218.65;141.48;;;9.80;99.90;;;;;;5055480;28;20028;-76
2024/02/06 12:00:27;;;;;;;210.63;140.98;;;9.80;99.90;;;;;;5058703;28;20423;-76
2024/02/06 12:02:53;;;;;;;222.18;144.93;;;9.80;99.90;;;;;;5059408;28;20067;-76
2024/02/06 12:05:20;;;;;;;217.98;139.75;;;9.80;99.90;;;;;;5060360;28;20032;-76
2024/02/06 12:07:56;;;;;;;210.02;137.82;;;9.90;99.90;;;;;;5062639;28;20029;-76
2024/02/06 12:10:30;;;;;;;215.98;139.40;;;9.90;98.20;;;;;;5062332;28;20016;-76
2024/02/06 12:13:07;;;;;;;206.93;135.27;;;9.90;99.20;;;;;;5071534;28;20475;-76
2024/02/06 12:15:34;;;;;;;208.30;133.25;;;9.90;99.90;;;;;;5071567;28;20498;-76